Terminal Aerodrome Forecast
Issued by NWS Spokane, WA

Home | Current Version | Previous Version | Text Only | Print | Product List | Glossary On
Versions: 1 2 3 4 5 6 7 8 9 10 11 12 13 14 15 16 17 18 19 20 21 22 23 24 25 26 27 28 29 30 31 32
000
FTUS46 KOTX 192348 AAA
TAFLWS
TAF AMD
KLWS 192348Z 2000/2024 12005KT P6SM FEW030 BKN060
     FM200300 12004KT P6SM SCT008 BKN200
     FM200800 14003KT P6SM SCT040 BKN150
     FM201500 16007KT P6SM VCSH SCT025 OVC040
     FM201900 14005KT 4SM -RA BR OVC015=

USA.gov is the U.S. government's official web portal to all federal, state and local government web resources and services.